createdAt,value
2019-04-23T00:00:20.473Z,999.87
2019-04-23T00:01:29.513Z,999.87
2019-04-23T00:02:22.042Z,999.83
2019-04-23T00:03:23.395Z,999.83
2019-04-23T00:04:20.459Z,999.85
2019-04-23T00:05:30.497Z,999.77
2019-04-23T00:06:28.827Z,999.74
2019-04-23T00:07:35.909Z,999.76
2019-04-23T00:08:26.044Z,999.72
2019-04-23T00:09:30.383Z,999.69
2019-04-23T00:10:26.216Z,999.70
2019-04-23T00:11:19.308Z,999.67
2019-04-23T00:12:30.947Z,999.63
2019-04-23T00:13:24.670Z,999.63
2019-04-23T00:14:35.429Z,999.70
2019-04-23T00:16:26.557Z,999.61
2019-04-23T00:17:22.740Z,999.57
2019-04-23T00:18:22.725Z,999.62
2019-04-23T00:19:22.899Z,999.54
2019-04-23T00:20:22.028Z,999.60
2019-04-23T00:21:23.568Z,999.55
2019-04-23T00:22:20.285Z,999.55
2019-04-23T00:23:16.341Z,999.54
2019-04-23T00:24:32.970Z,999.58
2019-04-23T00:26:25.734Z,999.55
2019-04-23T00:27:40.518Z,999.52
2019-04-23T00:28:31.813Z,999.52
2019-04-23T00:29:19.001Z,999.53
2019-04-23T00:30:34.739Z,999.53
2019-04-23T00:32:23.447Z,999.58
2019-04-23T00:34:16.366Z,999.51
2019-04-23T00:35:24.415Z,999.51
2019-04-23T00:36:25.645Z,999.55
2019-04-23T00:37:25.644Z,999.54
2019-04-23T00:39:23.438Z,999.55
2019-04-23T00:40:19.141Z,999.52
2019-04-23T00:41:20.830Z,999.53
2019-04-23T00:42:20.551Z,999.53
2019-04-23T00:43:22.266Z,999.57
2019-04-23T00:44:22.929Z,999.56
2019-04-23T00:45:27.040Z,999.56
2019-04-23T00:46:25.919Z,999.53
2019-04-23T00:47:26.806Z,999.54
2019-04-23T00:48:31.216Z,999.49
2019-04-23T00:49:27.310Z,999.51
2019-04-23T00:50:20.749Z,999.45
2019-04-23T00:51:18.830Z,999.44
2019-04-23T00:52:20.886Z,999.40
2019-04-23T00:54:24.086Z,999.49
2019-04-23T00:55:38.596Z,999.46
2019-04-23T00:57:24.198Z,999.49
2019-04-23T00:59:21.274Z,999.40
2019-04-23T01:00:24.298Z,999.35
2019-04-23T01:01:18.274Z,999.34
2019-04-23T01:02:29.692Z,999.33
2019-04-23T01:03:17.525Z,999.34
2019-04-23T01:04:18.565Z,999.37
2019-04-23T01:06:19.748Z,999.39
2019-04-23T01:07:18.371Z,999.36
2019-04-23T01:08:29.736Z,999.40
2019-04-23T01:09:22.491Z,999.37
2019-04-23T01:10:20.242Z,999.41
2019-04-23T01:12:25.666Z,999.34
2019-04-23T01:13:22.831Z,999.35
2019-04-23T01:14:23.017Z,999.33
2019-04-23T01:15:25.554Z,999.29
2019-04-23T01:16:16.020Z,999.25
2019-04-23T01:17:26.650Z,999.22
2019-04-23T01:18:35.860Z,999.23
2019-04-23T01:19:24.401Z,999.26
2019-04-23T01:20:24.621Z,999.24
2019-04-23T01:20:58.473Z,999.21
2019-04-23T01:21:57.901Z,999.22
2019-04-23T01:22:57.337Z,999.25
2019-04-23T01:24:02.754Z,999.21
2019-04-23T01:25:11.133Z,999.23
2019-04-23T01:26:16.403Z,999.23
2019-04-23T01:28:23.860Z,999.18
2019-04-23T01:29:26.130Z,999.18
2019-04-23T01:30:19.818Z,999.20
2019-04-23T01:32:30.421Z,999.18
2019-04-23T01:33:29.559Z,999.19
2019-04-23T01:34:25.790Z,999.18
2019-04-23T01:35:32.692Z,999.20
2019-04-23T01:37:25.650Z,999.22
2019-04-23T01:38:29.367Z,999.23
2019-04-23T01:39:23.056Z,999.21
2019-04-23T01:40:27.133Z,999.19
2019-04-23T01:41:27.006Z,999.16
2019-04-23T01:42:29.353Z,999.14
2019-04-23T01:43:22.867Z,999.20
2019-04-23T01:44:34.171Z,999.23
2019-04-23T01:45:24.270Z,999.24
2019-04-23T01:46:22.003Z,999.20
2019-04-23T01:47:25.022Z,999.14
2019-04-23T01:48:18.532Z,999.14
2019-04-23T01:49:30.586Z,999.20
2019-04-23T01:51:26.232Z,999.21
2019-04-23T01:52:36.218Z,999.20
2019-04-23T01:54:25.924Z,999.19
2019-04-23T01:55:31.518Z,999.16
2019-04-23T01:56:24.657Z,999.15
2019-04-23T01:57:28.955Z,999.09
2019-04-23T01:59:26.327Z,999.11
2019-04-23T02:01:29.630Z,999.03
2019-04-23T02:02:29.825Z,999.01
2019-04-23T02:03:21.404Z,999.04
2019-04-23T02:04:28.517Z,999.02
2019-04-23T02:06:28.140Z,999.01
2019-04-23T02:07:29.686Z,998.95
2019-04-23T02:08:20.755Z,998.99
2019-04-23T02:09:27.308Z,999.00
2019-04-23T02:10:32.920Z,998.95
2019-04-23T02:11:16.454Z,998.97
2019-04-23T02:12:28.913Z,998.89
2019-04-23T02:15:26.420Z,998.92
2019-04-23T02:16:24.689Z,998.86
2019-04-23T02:17:21.980Z,998.88
2019-04-23T02:18:25.408Z,998.88
2019-04-23T02:19:23.557Z,998.83
2019-04-23T02:21:25.817Z,998.83
2019-04-23T02:22:31.017Z,998.85
2019-04-23T02:23:24.923Z,998.87
2019-04-23T02:24:27.807Z,998.93
2019-04-23T02:25:35.627Z,998.91
2019-04-23T02:26:36.917Z,998.95
2019-04-23T02:27:28.301Z,998.90
2019-04-23T02:28:25.351Z,998.86
2019-04-23T02:29:37.401Z,998.84
2019-04-23T02:31:47.138Z,998.80
2019-04-23T02:32:31.948Z,998.81
2019-04-23T02:34:42.928Z,998.79
2019-04-23T02:35:46.750Z,998.78
2019-04-23T02:36:32.500Z,998.75
2019-04-23T02:37:50.732Z,998.79
2019-04-23T02:38:40.595Z,998.77
2019-04-23T02:39:49.885Z,998.72
2019-04-23T02:40:38.155Z,998.69
2019-04-23T02:43:35.532Z,998.66
2019-04-23T02:44:31.756Z,998.63
2019-04-23T02:45:43.959Z,998.61
2019-04-23T02:46:17.455Z,998.63
2019-04-23T02:47:34.891Z,998.63
2019-04-23T02:49:36.024Z,998.56
2019-04-23T02:51:42.407Z,998.57
2019-04-23T02:52:34.207Z,998.53
2019-04-23T02:54:46.570Z,998.61
2019-04-23T02:55:38.940Z,998.63
2019-04-23T02:57:29.761Z,998.56
2019-04-23T02:59:56.027Z,998.52
2019-04-23T03:00:55.685Z,998.49
2019-04-23T03:03:38.335Z,998.53
2019-04-23T03:04:35.674Z,998.47
2019-04-23T03:05:24.984Z,998.43
2019-04-23T03:06:32.201Z,998.38
2019-04-23T03:08:32.980Z,998.39
2019-04-23T03:09:44.929Z,998.38
2019-04-23T03:10:32.263Z,998.33
2019-04-23T03:11:34.319Z,998.31
2019-04-23T03:12:31.395Z,998.32
2019-04-23T03:17:26.374Z,998.32
2019-04-23T03:18:42.215Z,998.39
2019-04-23T03:20:37.932Z,998.27
2019-04-23T03:21:31.353Z,998.29
2019-04-23T03:22:25.691Z,998.24
2019-04-23T03:23:49.971Z,998.28
2019-04-23T03:24:36.445Z,998.23
2019-04-23T03:26:40.793Z,998.31
2019-04-23T03:28:35.839Z,998.28
2019-04-23T03:29:40.490Z,998.26
2019-04-23T03:33:11.077Z,998.20
2019-04-23T03:36:17.028Z,998.26
2019-04-23T03:37:34.041Z,998.22
2019-04-23T03:38:41.738Z,998.24
2019-04-23T03:39:40.142Z,998.27
2019-04-23T03:40:19.283Z,998.24
2019-04-23T03:41:27.898Z,998.20
2019-04-23T03:42:38.741Z,998.20
2019-04-23T03:43:33.677Z,998.20
2019-04-23T03:44:47.807Z,998.24
2019-04-23T03:45:43.612Z,998.21
2019-04-23T03:46:30.415Z,998.23
2019-04-23T03:48:34.130Z,998.21
2019-04-23T03:49:31.401Z,998.28
2019-04-23T03:53:45.422Z,998.29
2019-04-23T03:54:37.683Z,998.23
2019-04-23T03:55:43.413Z,998.25
2019-04-23T03:56:44.667Z,998.20
2019-04-23T03:57:31.069Z,998.23
2019-04-23T03:58:49.390Z,998.28
2019-04-23T03:59:52.032Z,998.21
2019-04-23T04:00:37.278Z,998.20
2019-04-23T04:01:46.026Z,998.19
2019-04-23T04:03:52.978Z,998.23
2019-04-23T04:06:37.526Z,998.19
2019-04-23T04:07:36.305Z,998.15
2019-04-23T04:08:26.729Z,998.19
2019-04-23T04:09:34.829Z,998.19
2019-04-23T04:10:38.374Z,998.23
2019-04-23T04:11:29.349Z,998.22
2019-04-23T04:13:31.004Z,998.24
2019-04-23T04:14:45.760Z,998.21
2019-04-23T04:16:28.653Z,998.17
2019-04-23T04:17:33.014Z,998.31
2019-04-23T04:18:44.433Z,998.31
2019-04-23T04:20:35.301Z,998.20
2019-04-23T04:22:43.999Z,998.21
2019-04-23T04:23:35.123Z,998.29
2019-04-23T04:25:37.106Z,998.27
2019-04-23T04:26:40.995Z,998.25
2019-04-23T04:27:37.755Z,998.27
2019-04-23T04:28:48.889Z,998.22
2019-04-23T04:29:44.552Z,998.17
2019-04-23T04:31:42.977Z,998.17
2019-04-23T04:32:54.522Z,998.17
2019-04-23T04:33:46.974Z,998.16
2019-04-23T04:35:00.304Z,998.16
2019-04-23T04:35:22.201Z,998.18
2019-04-23T04:39:33.984Z,998.09
2019-04-23T04:40:45.634Z,998.12
2019-04-23T04:42:25.351Z,998.03
2019-04-23T04:47:36.831Z,998.00
2019-04-23T04:48:33.283Z,997.97
2019-04-23T04:49:31.895Z,997.94
2019-04-23T04:50:26.397Z,997.96
2019-04-23T04:52:49.113Z,997.98
2019-04-23T04:55:28.355Z,998.00
2019-04-23T04:58:30.803Z,998.00
2019-04-23T05:00:45.673Z,998.03
2019-04-23T05:02:41.806Z,997.95
2019-04-23T05:05:55.335Z,998.04
2019-04-23T05:08:28.918Z,998.03
2019-04-23T05:09:29.298Z,997.98
2019-04-23T05:10:32.521Z,997.95
2019-04-23T05:12:36.114Z,998.01
2019-04-23T05:15:25.652Z,997.98
2019-04-23T05:16:33.436Z,997.96
2019-04-23T05:17:36.009Z,997.98
2019-04-23T05:19:35.501Z,998.00
2019-04-23T05:20:26.097Z,997.96
2019-04-23T05:21:26.501Z,997.94
2019-04-23T05:22:24.544Z,997.92
2019-04-23T05:25:20.884Z,997.89
2019-04-23T05:26:25.126Z,997.88
2019-04-23T05:27:17.890Z,997.85
2019-04-23T05:28:36.644Z,997.86
2019-04-23T05:29:14.498Z,997.86
2019-04-23T05:30:32.949Z,997.82
2019-04-23T05:32:21.934Z,997.84
2019-04-23T05:33:23.902Z,997.86
2019-04-23T05:34:24.668Z,997.85
2019-04-23T05:35:42.805Z,997.90
2019-04-23T05:36:35.900Z,997.87
2019-04-23T05:37:23.006Z,997.89
2019-04-23T05:38:37.478Z,997.88
2019-04-23T05:39:29.071Z,997.83
2019-04-23T05:40:30.459Z,997.82
2019-04-23T05:41:36.490Z,997.83
2019-04-23T05:42:19.903Z,997.81
2019-04-23T05:43:19.279Z,997.80
2019-04-23T05:44:38.339Z,997.83
2019-04-23T05:45:21.899Z,997.79
2019-04-23T05:46:26.434Z,997.83
2019-04-23T05:50:38.605Z,997.80
2019-04-23T05:51:28.221Z,997.72
2019-04-23T05:52:24.107Z,997.78
2019-04-23T05:54:26.608Z,997.78
2019-04-23T05:55:23.640Z,997.83
2019-04-23T05:56:21.400Z,997.80
2019-04-23T05:57:19.793Z,997.80
2019-04-23T05:58:28.836Z,997.81
2019-04-23T05:59:23.114Z,997.78
2019-04-23T06:00:28.889Z,997.77
2019-04-23T06:01:41.717Z,997.76
2019-04-23T06:02:20.775Z,997.73
2019-04-23T06:03:26.455Z,997.68
2019-04-23T06:04:38.854Z,997.73
2019-04-23T06:05:25.144Z,997.75
2019-04-23T06:06:33.162Z,997.74
2019-04-23T06:07:31.875Z,997.80
2019-04-23T06:08:25.781Z,997.62
2019-04-23T06:10:23.415Z,997.62
2019-04-23T06:11:28.494Z,997.60
2019-04-23T06:12:34.842Z,997.65
2019-04-23T06:13:26.950Z,997.67
2019-04-23T06:15:24.145Z,997.63
2019-04-23T06:16:31.414Z,997.61
2019-04-23T06:17:21.349Z,997.63
2019-04-23T06:18:28.573Z,997.65
2019-04-23T06:19:21.439Z,997.63
2019-04-23T06:20:30.933Z,997.56
2019-04-23T06:21:26.748Z,997.54
2019-04-23T06:22:30.152Z,997.58
2019-04-23T06:23:31.828Z,997.53
2019-04-23T06:24:32.991Z,997.55
2019-04-23T06:25:42.232Z,997.55
2019-04-23T06:26:33.065Z,997.53
2019-04-23T06:27:26.014Z,997.44
2019-04-23T06:28:24.549Z,997.47
2019-04-23T06:29:25.491Z,997.48
2019-04-23T06:30:26.626Z,997.47
2019-04-23T06:31:24.774Z,997.44
2019-04-23T06:32:19.336Z,997.49
2019-04-23T06:34:26.539Z,997.50
2019-04-23T06:35:23.827Z,997.47
2019-04-23T06:36:26.028Z,997.41
2019-04-23T06:37:32.460Z,997.44
2019-04-23T06:39:15.835Z,997.36
2019-04-23T06:40:25.212Z,997.40
2019-04-23T06:41:21.338Z,997.36
2019-04-23T06:42:21.078Z,997.37
2019-04-23T06:45:14.824Z,997.39
2019-04-23T06:46:20.836Z,997.36
2019-04-23T06:47:19.984Z,997.34
2019-04-23T06:48:22.165Z,997.31
2019-04-23T06:49:24.288Z,997.31
2019-04-23T06:50:21.147Z,997.25
2019-04-23T06:51:29.199Z,997.23
2019-04-23T06:53:21.022Z,997.28
2019-04-23T06:54:27.870Z,997.27
2019-04-23T06:55:20.831Z,997.26
2019-04-23T06:56:26.545Z,997.22
2019-04-23T06:58:25.938Z,997.23
2019-04-23T07:00:23.933Z,997.20
2019-04-23T07:01:17.605Z,997.22
2019-04-23T07:03:23.140Z,997.20
2019-04-23T07:04:29.014Z,997.17
2019-04-23T07:05:28.027Z,997.11
2019-04-23T07:08:26.634Z,997.14
2019-04-23T07:09:26.275Z,997.10
2019-04-23T07:10:42.207Z,997.09
2019-04-23T07:11:27.051Z,997.06
2019-04-23T07:12:21.964Z,997.01
2019-04-23T07:13:21.160Z,997.01
2019-04-23T07:14:12.904Z,996.99
2019-04-23T07:15:33.821Z,997.00
2019-04-23T07:16:34.650Z,997.06
2019-04-23T07:17:13.309Z,997.06
2019-04-23T07:18:24.566Z,997.02
2019-04-23T07:19:26.903Z,997.02
2019-04-23T07:20:24.313Z,996.90
2019-04-23T07:23:28.455Z,996.89
2019-04-23T07:24:16.864Z,996.80
2019-04-23T07:25:26.264Z,996.81
2019-04-23T07:27:21.198Z,996.79
2019-04-23T07:28:27.509Z,996.79
2019-04-23T07:29:17.825Z,996.88
2019-04-23T07:30:26.241Z,996.82
2019-04-23T07:32:15.165Z,996.77
2019-04-23T07:33:18.703Z,996.79
2019-04-23T07:34:18.807Z,996.76
2019-04-23T07:35:25.725Z,996.73
2019-04-23T07:36:31.046Z,996.73
2019-04-23T07:37:17.594Z,996.70
2019-04-23T07:38:33.609Z,996.71
2019-04-23T07:39:22.592Z,996.70
2019-04-23T07:40:27.538Z,996.75
2019-04-23T07:41:34.349Z,996.78
2019-04-23T07:42:24.769Z,996.72
2019-04-23T07:43:23.418Z,996.63
2019-04-23T07:44:28.257Z,996.69
2019-04-23T07:45:28.116Z,996.75
2019-04-23T07:46:27.358Z,996.64
2019-04-23T07:49:26.522Z,996.67
2019-04-23T07:50:38.062Z,996.64
2019-04-23T07:51:20.942Z,996.65
2019-04-23T07:52:27.658Z,996.59
2019-04-23T07:54:24.092Z,996.57
2019-04-23T07:55:25.475Z,996.61
2019-04-23T07:56:24.123Z,996.59
2019-04-23T07:57:18.797Z,996.54
2019-04-23T07:58:36.493Z,996.53
2019-04-23T07:59:24.914Z,996.53
2019-04-23T08:00:29.702Z,996.50
2019-04-23T08:01:17.794Z,996.51
2019-04-23T08:02:27.414Z,996.53
2019-04-23T08:04:31.799Z,996.46
2019-04-23T08:05:22.393Z,996.49
2019-04-23T08:06:19.476Z,996.46
2019-04-23T08:07:19.929Z,996.49
2019-04-23T08:08:16.947Z,996.45
2019-04-23T08:09:26.276Z,996.46
2019-04-23T08:10:22.816Z,996.42
2019-04-23T08:11:33.243Z,996.38
2019-04-23T08:12:25.090Z,996.42
2019-04-23T08:13:24.239Z,996.46
2019-04-23T08:14:13.594Z,996.42
2019-04-23T08:15:21.614Z,996.44
2019-04-23T08:16:29.435Z,996.46
2019-04-23T08:18:29.687Z,996.38
2019-04-23T08:19:24.439Z,996.36
2019-04-23T08:20:23.298Z,996.41
2019-04-23T08:21:21.219Z,996.32
2019-04-23T08:23:27.647Z,996.35
2019-04-23T08:24:16.988Z,996.29
2019-04-23T08:25:17.708Z,996.31
2019-04-23T08:26:29.545Z,996.37
2019-04-23T08:27:20.071Z,996.35
2019-04-23T08:28:34.072Z,996.35
2019-04-23T08:29:27.562Z,996.28
2019-04-23T08:30:15.863Z,996.34
2019-04-23T08:31:27.933Z,996.31
2019-04-23T08:32:19.605Z,996.28
2019-04-23T08:33:19.174Z,996.27
2019-04-23T08:34:33.852Z,996.26
2019-04-23T08:35:35.814Z,996.26
2019-04-23T08:36:37.539Z,996.17
2019-04-23T08:37:27.357Z,996.20
2019-04-23T08:38:25.877Z,996.20
2019-04-23T08:39:21.523Z,996.21
2019-04-23T08:40:26.379Z,996.16
2019-04-23T08:41:28.511Z,996.21
2019-04-23T08:43:29.639Z,996.16
2019-04-23T08:45:24.230Z,996.15
2019-04-23T08:46:24.778Z,996.19
2019-04-23T08:47:36.498Z,996.13
2019-04-23T08:48:30.564Z,996.17
2019-04-23T08:50:21.605Z,996.10
2019-04-23T08:52:18.360Z,996.08
2019-04-23T08:54:32.217Z,996.06
2019-04-23T08:55:20.955Z,996.03
2019-04-23T08:56:23.678Z,996.01
2019-04-23T08:57:22.618Z,996.01
2019-04-23T08:58:25.183Z,996.00
2019-04-23T08:59:25.235Z,995.96
2019-04-23T09:00:31.438Z,995.96
2019-04-23T09:01:17.171Z,995.95
2019-04-23T09:02:31.053Z,995.99
2019-04-23T09:04:27.207Z,995.94
2019-04-23T09:05:28.540Z,995.92
2019-04-23T09:06:17.219Z,995.93
2019-04-23T09:07:26.574Z,995.90
2019-04-23T09:08:24.561Z,995.93
2019-04-23T09:09:20.083Z,995.87
2019-04-23T09:10:19.618Z,995.91
2019-04-23T09:11:35.788Z,995.91
2019-04-23T09:12:23.902Z,995.89
2019-04-23T09:14:11.813Z,995.82
2019-04-23T09:15:28.365Z,995.85
2019-04-23T09:16:22.160Z,995.83
2019-04-23T09:18:22.087Z,995.84
2019-04-23T09:19:23.431Z,995.82
2019-04-23T09:20:21.848Z,995.82
2019-04-23T09:21:22.565Z,995.82
2019-04-23T09:23:20.601Z,995.79
2019-04-23T09:24:21.528Z,995.78
2019-04-23T09:25:30.038Z,995.79
2019-04-23T09:26:15.797Z,995.81
2019-04-23T09:27:31.601Z,995.78
2019-04-23T09:28:27.545Z,995.79
2019-04-23T09:29:26.682Z,995.79
2019-04-23T09:30:18.822Z,995.80
2019-04-23T09:31:55.154Z,995.79
2019-04-23T09:32:29.876Z,995.79
2019-04-23T09:33:27.901Z,995.79
2019-04-23T09:34:16.643Z,995.71
2019-04-23T09:35:20.689Z,995.75
2019-04-23T09:36:22.412Z,995.75
2019-04-23T09:38:19.858Z,995.73
2019-04-23T09:39:20.608Z,995.72
2019-04-23T09:40:31.717Z,995.70
2019-04-23T09:42:27.697Z,995.77
2019-04-23T09:43:19.741Z,995.79
2019-04-23T09:44:42.585Z,995.73
2019-04-23T09:45:22.750Z,995.72
2019-04-23T09:47:19.384Z,995.68
2019-04-23T09:48:35.312Z,995.69
2019-04-23T09:49:20.836Z,995.62
2019-04-23T09:50:20.163Z,995.68
2019-04-23T09:51:22.345Z,995.67
2019-04-23T09:52:20.373Z,995.70
2019-04-23T09:56:22.299Z,995.68
2019-04-23T09:57:16.001Z,995.61
2019-04-23T09:58:15.157Z,995.58
2019-04-23T09:59:26.796Z,995.58
2019-04-23T10:00:31.545Z,995.58
2019-04-23T10:01:23.784Z,995.53
2019-04-23T10:02:10.384Z,995.55
2019-04-23T10:03:09.070Z,995.54
2019-04-23T10:04:04.066Z,995.55
2019-04-23T10:05:08.430Z,995.47
2019-04-23T10:06:03.248Z,995.50
2019-04-23T10:07:06.818Z,995.45
2019-04-23T10:08:03.034Z,995.44
2019-04-23T10:08:56.216Z,995.41
2019-04-23T10:09:53.581Z,995.40
2019-04-23T10:10:51.486Z,995.43
2019-04-23T10:11:51.482Z,995.42
2019-04-23T10:12:51.450Z,995.40
2019-04-23T10:13:52.784Z,995.32
2019-04-23T10:15:01.284Z,995.31
2019-04-23T10:15:53.911Z,995.36
2019-04-23T10:16:53.309Z,995.31
2019-04-23T10:17:52.112Z,995.32
2019-04-23T10:18:51.382Z,995.30
2019-04-23T10:19:52.889Z,995.33
2019-04-23T10:20:52.301Z,995.27
2019-04-23T10:21:51.500Z,995.27
2019-04-23T10:22:52.620Z,995.30
2019-04-23T10:23:51.777Z,995.26
2019-04-23T10:24:53.145Z,995.31
2019-04-23T10:25:52.251Z,995.26
2019-04-23T10:26:52.289Z,995.20
2019-04-23T10:27:56.931Z,995.23
2019-04-23T10:28:53.879Z,995.25
2019-04-23T10:29:51.882Z,995.16
2019-04-23T10:30:51.276Z,995.19
2019-04-23T10:31:51.480Z,995.21
2019-04-23T10:32:51.625Z,995.14
2019-04-23T10:33:52.353Z,995.09
2019-04-23T10:35:03.796Z,995.09
2019-04-23T10:35:58.945Z,995.11
2019-04-23T10:36:53.633Z,995.10
2019-04-23T10:37:56.861Z,995.02
2019-04-23T10:39:00.599Z,995.07
2019-04-23T10:39:58.218Z,995.02
2019-04-23T10:40:52.686Z,995.08
2019-04-23T10:41:54.423Z,995.00
2019-04-23T10:42:52.262Z,995.03
2019-04-23T10:43:54.124Z,995.01
2019-04-23T10:44:58.669Z,995.06
2019-04-23T10:46:08.044Z,995.04
2019-04-23T10:47:15.215Z,995.02
2019-04-23T10:48:30.929Z,994.98
2019-04-23T10:50:27.643Z,995.04
2019-04-23T10:51:25.997Z,994.98
2019-04-23T10:52:19.067Z,994.96
2019-04-23T10:54:26.403Z,994.96
2019-04-23T10:55:25.761Z,994.97
2019-04-23T10:56:30.986Z,994.87
2019-04-23T10:57:17.128Z,994.84
2019-04-23T10:58:24.977Z,994.88
2019-04-23T10:59:19.409Z,994.88
2019-04-23T11:00:16.164Z,994.89
2019-04-23T11:01:23.979Z,994.94
2019-04-23T11:02:36.712Z,994.91
2019-04-23T11:03:43.675Z,994.95
2019-04-23T11:04:42.975Z,994.93
2019-04-23T11:05:30.392Z,994.88
2019-04-23T11:06:28.764Z,994.84
2019-04-23T11:08:19.937Z,994.79
2019-04-23T11:09:34.828Z,994.82
2019-04-23T11:11:23.569Z,994.84
2019-04-23T11:12:32.010Z,994.83
2019-04-23T11:13:25.617Z,994.91
2019-04-23T11:14:25.153Z,994.86
2019-04-23T11:17:26.056Z,994.83
2019-04-23T11:18:33.359Z,994.86
2019-04-23T11:19:27.642Z,994.78
2019-04-23T11:20:36.816Z,994.76
2019-04-23T11:22:38.977Z,994.81
2019-04-23T11:23:13.533Z,994.80
2019-04-23T11:24:32.385Z,994.79
2019-04-23T11:26:24.447Z,994.78
2019-04-23T11:27:26.154Z,994.74
2019-04-23T11:28:27.790Z,994.75
2019-04-23T11:29:30.127Z,994.76
2019-04-23T11:31:31.116Z,994.76
2019-04-23T11:32:40.669Z,994.78
2019-04-23T11:33:18.494Z,994.73
2019-04-23T11:34:43.988Z,994.81
2019-04-23T11:37:37.316Z,994.74
2019-04-23T11:38:51.186Z,994.70
2019-04-23T11:39:27.376Z,994.67
2019-04-23T11:40:23.189Z,994.69
2019-04-23T11:41:25.161Z,994.66
2019-04-23T11:42:17.944Z,994.68
2019-04-23T11:43:24.780Z,994.62
2019-04-23T11:44:26.951Z,994.64
2019-04-23T11:46:39.813Z,994.65
2019-04-23T11:48:02.404Z,994.58
2019-04-23T11:49:38.251Z,994.62
2019-04-23T11:50:31.736Z,994.58
2019-04-23T11:52:32.445Z,994.62
2019-04-23T11:53:32.020Z,994.62
2019-04-23T11:54:25.754Z,994.63
2019-04-23T11:55:33.072Z,994.61
2019-04-23T11:56:48.833Z,994.60
2019-04-23T11:57:29.842Z,994.60
2019-04-23T11:58:20.717Z,994.62
2019-04-23T11:59:31.668Z,994.66
2019-04-23T12:00:30.927Z,994.65
2019-04-23T12:02:23.225Z,994.64
2019-04-23T12:03:19.210Z,994.72
2019-04-23T12:05:29.759Z,994.72
2019-04-23T12:06:25.267Z,994.68
2019-04-23T12:07:24.250Z,994.66
2019-04-23T12:08:29.472Z,994.68
2019-04-23T12:09:26.414Z,994.66
2019-04-23T12:10:29.132Z,994.64
2019-04-23T12:11:46.453Z,994.58
2019-04-23T12:12:23.776Z,994.66
2019-04-23T12:13:26.999Z,994.62
2019-04-23T12:14:32.729Z,994.62
2019-04-23T12:15:25.181Z,994.65
2019-04-23T12:16:27.930Z,994.61
2019-04-23T12:18:30.552Z,994.60
2019-04-23T12:19:44.326Z,994.59
2019-04-23T12:20:25.629Z,994.49
2019-04-23T12:21:25.438Z,994.54
2019-04-23T12:23:31.680Z,994.48
2019-04-23T12:24:29.232Z,994.52
2019-04-23T12:26:33.833Z,994.48
2019-04-23T12:27:23.264Z,994.51
2019-04-23T12:28:22.607Z,994.53
2019-04-23T12:29:27.669Z,994.46
2019-04-23T12:30:27.550Z,994.53
2019-04-23T12:31:24.704Z,994.50
2019-04-23T12:32:38.041Z,994.49
2019-04-23T12:33:32.186Z,994.51
2019-04-23T12:34:25.083Z,994.52
2019-04-23T12:36:32.028Z,994.46
2019-04-23T12:37:23.606Z,994.55
2019-04-23T12:38:19.083Z,994.57
2019-04-23T12:39:21.526Z,994.57
2019-04-23T12:40:35.953Z,994.48
2019-04-23T12:41:21.079Z,994.54
2019-04-23T12:42:45.433Z,994.49
2019-04-23T12:44:26.401Z,994.42
2019-04-23T12:46:25.992Z,994.40
2019-04-23T12:47:38.014Z,994.40
2019-04-23T12:49:50.508Z,994.38
2019-04-23T12:50:42.231Z,994.37
2019-04-23T12:51:26.603Z,994.32
2019-04-23T12:52:25.544Z,994.36
2019-04-23T12:53:25.797Z,994.35
2019-04-23T12:54:35.737Z,994.22
2019-04-23T12:55:23.300Z,994.31
2019-04-23T12:56:34.744Z,994.24
2019-04-23T12:57:29.951Z,994.21
2019-04-23T12:58:22.191Z,994.18
2019-04-23T12:59:25.290Z,994.25
2019-04-23T13:00:20.912Z,994.26
2019-04-23T13:01:24.875Z,994.22
2019-04-23T13:02:27.435Z,994.19
2019-04-23T13:05:23.127Z,994.25
2019-04-23T13:06:17.063Z,994.20
2019-04-23T13:07:26.065Z,994.29
2019-04-23T13:09:34.691Z,994.20
2019-04-23T13:10:25.136Z,994.20
2019-04-23T13:11:23.268Z,994.20
2019-04-23T13:12:33.256Z,994.21
2019-04-23T13:13:23.874Z,994.17
2019-04-23T13:14:30.463Z,994.15
2019-04-23T13:15:15.571Z,994.14
2019-04-23T13:16:28.077Z,994.16
2019-04-23T13:17:31.207Z,994.14
2019-04-23T13:18:17.321Z,994.14
2019-04-23T13:19:33.335Z,994.10
2019-04-23T13:21:38.413Z,994.08
2019-04-23T13:22:24.262Z,994.08
2019-04-23T13:24:22.831Z,994.05
2019-04-23T13:25:19.999Z,994.05
2019-04-23T13:26:16.128Z,994.01
2019-04-23T13:27:23.868Z,994.00
2019-04-23T13:29:32.927Z,993.92
2019-04-23T13:30:23.203Z,993.89
2019-04-23T13:31:17.841Z,993.93
2019-04-23T13:32:21.070Z,993.88
2019-04-23T13:33:30.787Z,993.86
2019-04-23T13:34:22.557Z,993.85
2019-04-23T13:35:38.060Z,993.85
2019-04-23T13:36:28.723Z,993.81
2019-04-23T13:37:33.639Z,993.81
2019-04-23T13:38:28.616Z,993.70
2019-04-23T13:39:17.965Z,993.75
2019-04-23T13:40:24.722Z,993.73
2019-04-23T13:41:31.701Z,993.75
2019-04-23T13:42:39.580Z,993.75
2019-04-23T13:43:29.866Z,993.65
2019-04-23T13:44:23.587Z,993.76
2019-04-23T13:45:33.270Z,993.77
2019-04-23T13:46:14.831Z,993.73
2019-04-23T13:47:28.222Z,993.74
2019-04-23T13:48:18.345Z,993.71
2019-04-23T13:49:18.019Z,993.71
2019-04-23T13:50:35.566Z,993.66
2019-04-23T13:51:21.274Z,993.70
2019-04-23T13:52:48.791Z,993.70
2019-04-23T13:54:27.891Z,993.66
2019-04-23T13:55:30.029Z,993.67
2019-04-23T13:56:24.771Z,993.71
2019-04-23T13:57:46.534Z,993.63
2019-04-23T13:58:22.663Z,993.63
2019-04-23T13:59:26.284Z,993.65
2019-04-23T14:00:25.069Z,993.68
2019-04-23T14:01:28.052Z,993.53
2019-04-23T14:02:34.340Z,993.56
2019-04-23T14:03:23.044Z,993.57
2019-04-23T14:04:41.658Z,993.54
2019-04-23T14:05:23.964Z,993.57
2019-04-23T14:06:25.056Z,993.59
2019-04-23T14:07:24.877Z,993.55
2019-04-23T14:08:33.445Z,993.55
2019-04-23T14:10:34.248Z,993.54
2019-04-23T14:11:23.712Z,993.55
2019-04-23T14:12:24.147Z,993.57
2019-04-23T14:14:24.996Z,993.43
2019-04-23T14:15:25.251Z,993.43
2019-04-23T14:18:43.405Z,993.41
2019-04-23T14:19:16.387Z,993.39
2019-04-23T14:22:46.232Z,993.30
2019-04-23T14:23:27.252Z,993.31
2019-04-23T14:26:27.613Z,993.29
2019-04-23T14:27:20.016Z,993.28
2019-04-23T14:28:21.668Z,993.32
2019-04-23T14:29:21.319Z,993.28
2019-04-23T14:30:31.320Z,993.28
2019-04-23T14:31:30.416Z,993.24
2019-04-23T14:34:19.331Z,993.30
2019-04-23T14:35:32.403Z,993.34
2019-04-23T14:36:19.446Z,993.25
2019-04-23T14:37:17.939Z,993.19
2019-04-23T14:40:26.457Z,993.22
2019-04-23T14:41:23.440Z,993.21
2019-04-23T14:42:36.419Z,993.20
2019-04-23T14:43:25.765Z,993.27
2019-04-23T14:44:12.886Z,993.20
2019-04-23T14:45:29.584Z,993.21
2019-04-23T14:46:41.271Z,993.23
2019-04-23T14:47:24.059Z,993.20
2019-04-23T14:48:29.930Z,993.24
2019-04-23T14:49:24.647Z,993.22
2019-04-23T14:51:26.861Z,993.19
2019-04-23T14:52:21.381Z,993.25
2019-04-23T14:53:20.211Z,993.21
2019-04-23T14:54:24.897Z,993.25
2019-04-23T14:56:16.122Z,993.19
2019-04-23T14:57:26.185Z,993.16
2019-04-23T14:58:27.788Z,993.14
2019-04-23T14:59:10.419Z,993.13
2019-04-23T15:00:29.112Z,993.19
2019-04-23T15:02:23.576Z,993.13
2019-04-23T15:03:26.752Z,993.11
2019-04-23T15:04:19.240Z,993.12
2019-04-23T15:05:17.333Z,993.13
2019-04-23T15:06:27.774Z,993.09
2019-04-23T15:07:22.625Z,993.08
2019-04-23T15:08:25.154Z,993.04
2019-04-23T15:09:22.819Z,993.08
2019-04-23T15:10:24.802Z,993.11
2019-04-23T15:11:44.152Z,993.12
2019-04-23T15:13:22.862Z,993.15
2019-04-23T15:14:16.893Z,993.13
2019-04-23T15:15:21.238Z,993.05
2019-04-23T15:17:20.445Z,993.05
2019-04-23T15:18:33.071Z,993.06
2019-04-23T15:20:15.016Z,993.04
2019-04-23T15:23:33.254Z,993.11